Ngahue 4 — PG6771 — position and weather

sailwx.info

Track history (hours):
 
Tides and Currents Weather Stations Pressure Air Temp Water Temp Dewpoint Dewpoint Depression Visibility Wind Speed Wind Dir Waves Ship Positions

Ngahue 4

Last reported at 2017-Nov-19 17:30 UTC. Time now 2017-Nov-24 22:03 UTC.
Position N 27°49' W 015°20'.

Length 18 m; draft 2.3 m.

Type: Sailing vessel. MMSI: 244020377.

Date/timePositionNaut miles runAvg speedWind from/ knotsBaromVisibWave heightAir tempDewpointWater temp
2017-Nov-19 17:30N 27°49' W 015°20'3 6.6
2017-Nov-19 17:00N 27°52' W 015°20'3 5.6
2017-Nov-19 16:30N 27°55' W 015°20'2 4.5
2017-Nov-19 15:59N 27°58' W 015°21'2 3.9
2017-Nov-19 15:30N 27°59' W 015°21'2 3.7
2017-Nov-19 15:00N 28°01' W 015°22'2 3.1
2017-Nov-19 14:30N 28°03' W 015°22'2 3.4
2017-Nov-19 14:00N 28°04' W 015°23'2 3.3
2017-Nov-19 13:30N 28°06' W 015°24'2 3.5
2017-Nov-19 13:00N 28°07' W 015°25'1 1.4
2017-Nov-19 12:30N 28°08' W 015°26'0 0.1
2017-Nov-19 12:00N 28°08' W 015°26'0 0.0
2017-Nov-19 11:30N 28°08' W 015°26'0 0.0
2017-Nov-19 11:00N 28°08' W 015°26'0 0.0
2017-Nov-19 10:30N 28°08' W 015°26'0 0.0
2017-Nov-19 10:00N 28°08' W 015°26'0 0.0
2017-Nov-19 09:30N 28°08' W 015°26'0 0.0
2017-Nov-19 09:00N 28°08' W 015°26'0 0.0
2017-Nov-19 08:30N 28°08' W 015°26'0 0.0
2017-Nov-19 08:00N 28°08' W 015°26'0 0.0
2017-Nov-18 22:38N 28°08' W 015°26'0 0.0
2017-Nov-18 22:30N 28°08' W 015°26'0 0.0
2017-Nov-18 22:00N 28°08' W 015°26'0 0.0
2017-Nov-18 21:30N 28°08' W 015°26'  
2017-Nov-16 11:41N 28°08' W 015°26'  
2017-Nov-12 01:57N 28°08' W 015°25'0 0.0
2017-Nov-12 01:30N 28°08' W 015°25'1 1.9
2017-Nov-12 01:00N 28°07' W 015°25'3 5.5
2017-Nov-12 00:30N 28°09' W 015°22'3 5.3
2017-Nov-12 00:00N 28°10' W 015°20'3 5.9
2017-Nov-11 23:30N 28°12' W 015°17'3 5.9
2017-Nov-11 23:00N 28°14' W 015°14'3 6.3
2017-Nov-11 22:30N 28°15' W 015°11'3 6.5
2017-Nov-11 21:59N 28°17' W 015°08'3 6.5
2017-Nov-11 21:30N 28°19' W 015°05'3 6.5
2017-Nov-11 21:00N 28°21' W 015°02'3 6.5
2017-Nov-11 20:30N 28°22' W 014°59'4 6.5
2017-Nov-11 19:56N 28°24' W 014°55'3 6.5
2017-Nov-11 19:30N 28°26' W 014°52'3 6.6
2017-Nov-11 19:00N 28°28' W 014°49'3 6.7
2017-Nov-11 18:30N 28°29' W 014°46'3 6.6
2017-Nov-11 18:00N 28°31' W 014°43'3 6.5
2017-Nov-11 17:30N 28°33' W 014°40'3 6.4
2017-Nov-11 16:58N 28°35' W 014°36'3 6.2
2017-Nov-11 16:31N 28°36' W 014°34'3 6.1
2017-Nov-11 16:00N 28°38' W 014°31'3 6.1
2017-Nov-11 15:30N 28°40' W 014°28'3 6.3
2017-Nov-11 15:00N 28°41' W 014°25'3 6.3
2017-Nov-11 14:30N 28°42' W 014°21'3 6.3
2017-Nov-11 14:00N 28°43' W 014°18'3 6.4
2017-Nov-11 13:30N 28°44' W 014°14'4 6.5
2017-Nov-11 12:53N 28°45' W 014°10'2 6.6
2017-Nov-11 12:30N 28°46' W 014°07'3 6.6
2017-Nov-11 12:00N 28°46' W 014°04'4 7.1
2017-Nov-11 11:30N 28°47' W 013°60'4 7.4
2017-Nov-11 11:00N 28°48' W 013°55'4 7.1
2017-Nov-11 10:30N 28°49' W 013°52'4 7.0
2017-Nov-11 09:59N 28°50' W 013°47'3 6.4
2017-Nov-11 09:29N 28°52' W 013°45'3 6.1
2017-Nov-11 09:00N 28°53' W 013°42'3 6.2
2017-Nov-11 08:28N 28°54' W 013°38'5 6.3
2017-Nov-11 07:42N 28°56' W 013°33'2 1.8
2017-Nov-11 06:44N 28°58' W 013°32'0 0.0
2017-Nov-11 06:27N 28°58' W 013°32'0 0.0
2017-Nov-11 05:22N 28°58' W 013°32'0 0.0
2017-Nov-11 04:59N 28°58' W 013°32'0 0.0
2017-Nov-11 04:30N 28°58' W 013°32'0 0.0
2017-Nov-11 03:59N 28°58' W 013°32'0 0.0
2017-Nov-11 03:26N 28°58' W 013°32'0 0.0
2017-Nov-11 03:00N 28°58' W 013°32'0 0.0
2017-Nov-11 02:30N 28°58' W 013°32'0 0.0
2017-Nov-11 01:29N 28°58' W 013°32'0 0.0
2017-Nov-11 00:57N 28°58' W 013°32'0 0.0
2017-Nov-11 00:30N 28°58' W 013°32'0 0.0
2017-Nov-11 00:00N 28°58' W 013°32'0 0.0
2017-Nov-10 23:18N 28°58' W 013°32'0 0.0
2017-Nov-10 21:54N 28°58' W 013°32'0 0.0
2017-Nov-10 21:28N 28°58' W 013°32'0 0.0
2017-Nov-10 19:47N 28°58' W 013°32'0 0.0
2017-Nov-10 19:30N 28°58' W 013°32'0 0.0
2017-Nov-10 18:50N 28°58' W 013°32'0 0.0
2017-Nov-10 18:29N 28°58' W 013°32'0 0.0
2017-Nov-10 17:55N 28°58' W 013°32'0 0.0
2017-Nov-10 17:29N 28°58' W 013°32'0 0.0
2017-Nov-10 16:55N 28°58' W 013°32'0 0.0
2017-Nov-10 16:19N 28°58' W 013°32'0 0.0
2017-Nov-10 15:59N 28°58' W 013°32'0 0.0
2017-Nov-10 15:29N 28°58' W 013°32'0 0.0
2017-Nov-10 14:58N 28°58' W 013°32'0 0.0
2017-Nov-10 14:29N 28°58' W 013°32'0 0.0
2017-Nov-10 14:00N 28°58' W 013°32'0 0.0
2017-Nov-10 13:30N 28°58' W 013°32'0 0.0
2017-Nov-10 13:00N 28°58' W 013°32'0 0.0
2017-Nov-10 12:30N 28°58' W 013°32'0 0.0
2017-Nov-10 12:00N 28°58' W 013°32'0 0.0
2017-Nov-10 11:29N 28°58' W 013°32'0 0.0
2017-Nov-10 11:00N 28°58' W 013°32'0 0.0
2017-Nov-10 10:22N 28°58' W 013°32'0 0.0
2017-Nov-10 10:00N 28°58' W 013°32'0 0.0
2017-Nov-10 09:23N 28°58' W 013°32'0 0.0
2017-Nov-10 08:59N 28°58' W 013°32'0 0.0
2017-Nov-10 08:30N 28°58' W 013°32'  
Track history (hours):
 
Tides and Currents Weather Stations Pressure Air Temp Water Temp Dewpoint Dewpoint Depression Visibility Wind Speed Wind Dir Waves Ship Positions

Ngahue 4

Last reported at 2017-Nov-19 17:30 UTC. Time now 2017-Nov-24 22:03 UTC.
Position N 27°49' W 015°20'.

Length 18 m; draft 2.3 m.

Type: Sailing vessel. MMSI: 244020377.

Date/timePositionNaut miles runAvg speedWind from/ knotsBaromVisibWave heightAir tempDewpointWater temp
2017-Nov-19 17:30N 27°49' W 015°20'3 6.6
2017-Nov-19 17:00N 27°52' W 015°20'3 5.6
2017-Nov-19 16:30N 27°55' W 015°20'2 4.5
2017-Nov-19 15:59N 27°58' W 015°21'2 3.9
2017-Nov-19 15:30N 27°59' W 015°21'2 3.7
2017-Nov-19 15:00N 28°01' W 015°22'2 3.1
2017-Nov-19 14:30N 28°03' W 015°22'2 3.4
2017-Nov-19 14:00N 28°04' W 015°23'2 3.3
2017-Nov-19 13:30N 28°06' W 015°24'2 3.5
2017-Nov-19 13:00N 28°07' W 015°25'1 1.4
2017-Nov-19 12:30N 28°08' W 015°26'0 0.1
2017-Nov-19 12:00N 28°08' W 015°26'0 0.0
2017-Nov-19 11:30N 28°08' W 015°26'0 0.0
2017-Nov-19 11:00N 28°08' W 015°26'0 0.0
2017-Nov-19 10:30N 28°08' W 015°26'0 0.0
2017-Nov-19 10:00N 28°08' W 015°26'0 0.0
2017-Nov-19 09:30N 28°08' W 015°26'0 0.0
2017-Nov-19 09:00N 28°08' W 015°26'0 0.0
2017-Nov-19 08:30N 28°08' W 015°26'0 0.0
2017-Nov-19 08:00N 28°08' W 015°26'0 0.0
2017-Nov-18 22:38N 28°08' W 015°26'0 0.0
2017-Nov-18 22:30N 28°08' W 015°26'0 0.0
2017-Nov-18 22:00N 28°08' W 015°26'0 0.0
2017-Nov-18 21:30N 28°08' W 015°26'  
2017-Nov-16 11:41N 28°08' W 015°26'  
2017-Nov-12 01:57N 28°08' W 015°25'0 0.0
2017-Nov-12 01:30N 28°08' W 015°25'1 1.9
2017-Nov-12 01:00N 28°07' W 015°25'3 5.5
2017-Nov-12 00:30N 28°09' W 015°22'3 5.3
2017-Nov-12 00:00N 28°10' W 015°20'3 5.9
2017-Nov-11 23:30N 28°12' W 015°17'3 5.9
2017-Nov-11 23:00N 28°14' W 015°14'3 6.3
2017-Nov-11 22:30N 28°15' W 015°11'3 6.5
2017-Nov-11 21:59N 28°17' W 015°08'3 6.5
2017-Nov-11 21:30N 28°19' W 015°05'3 6.5
2017-Nov-11 21:00N 28°21' W 015°02'3 6.5
2017-Nov-11 20:30N 28°22' W 014°59'4 6.5
2017-Nov-11 19:56N 28°24' W 014°55'3 6.5
2017-Nov-11 19:30N 28°26' W 014°52'3 6.6
2017-Nov-11 19:00N 28°28' W 014°49'3 6.7
2017-Nov-11 18:30N 28°29' W 014°46'3 6.6
2017-Nov-11 18:00N 28°31' W 014°43'3 6.5
2017-Nov-11 17:30N 28°33' W 014°40'3 6.4
2017-Nov-11 16:58N 28°35' W 014°36'3 6.2
2017-Nov-11 16:31N 28°36' W 014°34'3 6.1
2017-Nov-11 16:00N 28°38' W 014°31'3 6.1
2017-Nov-11 15:30N 28°40' W 014°28'3 6.3
2017-Nov-11 15:00N 28°41' W 014°25'3 6.3
2017-Nov-11 14:30N 28°42' W 014°21'3 6.3
2017-Nov-11 14:00N 28°43' W 014°18'3 6.4
2017-Nov-11 13:30N 28°44' W 014°14'4 6.5
2017-Nov-11 12:53N 28°45' W 014°10'2 6.6
2017-Nov-11 12:30N 28°46' W 014°07'3 6.6
2017-Nov-11 12:00N 28°46' W 014°04'4 7.1
2017-Nov-11 11:30N 28°47' W 013°60'4 7.4
2017-Nov-11 11:00N 28°48' W 013°55'4 7.1
2017-Nov-11 10:30N 28°49' W 013°52'4 7.0
2017-Nov-11 09:59N 28°50' W 013°47'3 6.4
2017-Nov-11 09:29N 28°52' W 013°45'3 6.1
2017-Nov-11 09:00N 28°53' W 013°42'3 6.2
2017-Nov-11 08:28N 28°54' W 013°38'5 6.3
2017-Nov-11 07:42N 28°56' W 013°33'2 1.8
2017-Nov-11 06:44N 28°58' W 013°32'0 0.0
2017-Nov-11 06:27N 28°58' W 013°32'0 0.0
2017-Nov-11 05:22N 28°58' W 013°32'0 0.0
2017-Nov-11 04:59N 28°58' W 013°32'0 0.0
2017-Nov-11 04:30N 28°58' W 013°32'0 0.0
2017-Nov-11 03:59N 28°58' W 013°32'0 0.0
2017-Nov-11 03:26N 28°58' W 013°32'0 0.0
2017-Nov-11 03:00N 28°58' W 013°32'0 0.0
2017-Nov-11 02:30N 28°58' W 013°32'0 0.0
2017-Nov-11 01:29N 28°58' W 013°32'0 0.0
2017-Nov-11 00:57N 28°58' W 013°32'0 0.0
2017-Nov-11 00:30N 28°58' W 013°32'0 0.0
2017-Nov-11 00:00N 28°58' W 013°32'0 0.0
2017-Nov-10 23:18N 28°58' W 013°32'0 0.0
2017-Nov-10 21:54N 28°58' W 013°32'0 0.0
2017-Nov-10 21:28N 28°58' W 013°32'0 0.0
2017-Nov-10 19:47N 28°58' W 013°32'0 0.0
2017-Nov-10 19:30N 28°58' W 013°32'0 0.0
2017-Nov-10 18:50N 28°58' W 013°32'0 0.0
2017-Nov-10 18:29N 28°58' W 013°32'0 0.0
2017-Nov-10 17:55N 28°58' W 013°32'0 0.0
2017-Nov-10 17:29N 28°58' W 013°32'0 0.0
2017-Nov-10 16:55N 28°58' W 013°32'0 0.0
2017-Nov-10 16:19N 28°58' W 013°32'0 0.0
2017-Nov-10 15:59N 28°58' W 013°32'0 0.0
2017-Nov-10 15:29N 28°58' W 013°32'0 0.0
2017-Nov-10 14:58N 28°58' W 013°32'0 0.0
2017-Nov-10 14:29N 28°58' W 013°32'0 0.0
2017-Nov-10 14:00N 28°58' W 013°32'0 0.0
2017-Nov-10 13:30N 28°58' W 013°32'0 0.0
2017-Nov-10 13:00N 28°58' W 013°32'0 0.0
2017-Nov-10 12:30N 28°58' W 013°32'0 0.0
2017-Nov-10 12:00N 28°58' W 013°32'0 0.0
2017-Nov-10 11:29N 28°58' W 013°32'0 0.0
2017-Nov-10 11:00N 28°58' W 013°32'0 0.0
2017-Nov-10 10:22N 28°58' W 013°32'0 0.0
2017-Nov-10 10:00N 28°58' W 013°32'0 0.0
2017-Nov-10 09:23N 28°58' W 013°32'0 0.0
2017-Nov-10 08:59N 28°58' W 013°32'0 0.0
2017-Nov-10 08:30N 28°58' W 013°32'  

Dump ship's entire track history